首页
METAR-TAF:

METAR-TAF

机场 :

新奥尔良路易斯阿姆斯特朗国际机场

新奥尔良, 路易斯安那州, 美国

纬度: 29-59-34N, 经度: 090-15-03W, 海拔: 1米

当前天气观测

该预报发布于52分钟前的20:53 UTC
风速6节,风向东转东北
温度 23°C
湿度 73%
气压 1020 hPa
能見度: 16.1公里
少量云层高于7000英尺
多云层高于8500英尺
阴天层高于25000英尺

METAR: KMSY 222053Z 06006KT 10SM FEW070 BKN085 OVC250 23/18 A3011 RMK AO2 SLP198 T02330178 56016

时间: 16:45 (21:45 UTC)

预报

该预报发布于4小时和5分钟前的17:40 UTC
预报有效从22日的 18点(UTC)到 23日的 24点(UTC)
风速6节,风向北转东北
能見度: 10公里
多云层高于8000英尺
多云层高于25000英尺
从 23日的 0700点(UTC)
风速6节,风向东北
能見度: 10公里
多云层高于2000英尺
多云层高于6000英尺
阴天层高于15000英尺
从 23日的 1200点(UTC)
风速7节,风向东北
能見度: 10公里
多云层高于1000英尺
阴天层高于7000英尺
附近有阵雨
从 23日的 1500点(UTC)
风速10节,风向东北
能見度: 8.0公里
多云层高于1500英尺
阴天层高于3000英尺
小阵雨, 轻雾
几率 30%
从 23日的 18点(UTC)到 23日的 24点(UTC)
能見度: 1.6公里
阴天层高于300英尺
小阵雨

TAF: KMSY 221740Z 2218/2324 03006KT P6SM BKN080 BKN250 FM230700 04006KT P6SM BKN020 BKN060 OVC150 FM231200 05007KT P6SM VCSH BKN010 OVC070 FM231500 04010KT 5SM -SHRA BR BKN015 OVC030 PROB30 2318/2324 1SM -SHRA OVC003

超过4000个机场的气象观测和天气预报(METAR&TAF报告)。

可查询的气象台以黄色和红色小点在地图上表示。

将鼠标移到小点上方,可查看气象台名称。

然后点击查看天气观测和预报。

如需切换地图:点击带黑十字的绿色按钮放大地图;点击带横线的绿色按钮缩小地图;或者点击绿色箭头查看邻近地区的地图。


METAR-TAF: